Time;durP1;ratioP1;P1;durP2;ratioP2;P2;SDS_P1;SDS_P2;PMS_P1;PMS_P2;Temp;Humidity;BMP_temperature;BMP_pressure;BME280_temperature;BME280_humidity;BME280_pressure;Samples;Min_cycle;Max_cycle;Signal;HPM_P1;HPM_P2
2022/09/26 00:01:42;;;;;;;1.50;1.03;;;12.40;98.20;;;;;;4976108;28;20487;-79
2022/09/26 00:04:18;;;;;;;1.50;1.00;;;12.40;98.20;;;;;;4990829;28;20997;-80
2022/09/26 00:06:45;;;;;;;1.50;1.03;;;12.40;98.20;;;;;;4976838;28;20889;-80
2022/09/26 00:09:13;;;;;;;1.50;1.10;;;12.40;98.20;;;;;;4978790;28;20468;-80
2022/09/26 00:11:41;;;;;;;1.50;1.10;;;12.40;98.20;;;;;;4982690;28;20533;-78
2022/09/26 00:14:15;;;;;;;1.50;1.07;;;12.40;98.20;;;;;;4987402;28;20894;-78
2022/09/26 00:16:43;;;;;;;1.47;1.03;;;12.40;98.20;;;;;;4974768;28;20508;-79
2022/09/26 00:19:10;;;;;;;1.50;1.00;;;12.40;98.20;;;;;;4980181;28;20491;-79
2022/09/26 00:21:37;;;;;;;1.50;1.10;;;12.50;98.20;;;;;;4982383;28;21007;-79
2022/09/26 00:24:05;;;;;;;1.50;1.10;;;12.50;98.20;;;;;;4983323;28;20489;-79
2022/09/26 00:26:34;;;;;;;1.50;1.10;;;12.50;98.20;;;;;;4994153;28;20527;-80
2022/09/26 00:29:06;;;;;;;1.50;1.20;;;12.50;98.20;;;;;;4995123;28;20469;-79
2022/09/26 00:31:35;;;;;;;1.50;1.00;;;12.50;98.20;;;;;;4971373;28;20791;-79
2022/09/26 00:34:03;;;;;;;1.50;1.10;;;12.40;98.20;;;;;;4982803;28;20552;-79
2022/09/26 00:36:31;;;;;;;1.50;1.00;;;12.30;98.20;;;;;;4982322;28;20937;-79
2022/09/26 00:38:58;;;;;;;1.50;1.00;;;12.30;98.20;;;;;;4987877;28;20744;-79
2022/09/26 00:41:25;;;;;;;1.50;1.00;;;12.20;98.20;;;;;;4984446;28;20492;-79
2022/09/26 00:43:55;;;;;;;1.50;1.10;;;12.20;98.20;;;;;;4993235;28;20524;-79
2022/09/26 00:46:28;;;;;;;1.50;1.10;;;12.10;98.20;;;;;;4981954;28;20523;-79
2022/09/26 00:49:07;;;;;;;1.50;1.10;;;12.00;98.20;;;;;;4992509;28;20468;-79
2022/09/26 00:51:38;;;;;;;1.50;1.10;;;12.00;98.20;;;;;;4971275;28;20592;-79
2022/09/26 00:54:10;;;;;;;1.50;1.10;;;12.00;98.20;;;;;;4975135;28;20461;-79
2022/09/26 00:56:39;;;;;;;1.50;1.20;;;12.00;98.20;;;;;;4984083;28;20493;-79
2022/09/26 00:59:10;;;;;;;1.50;1.10;;;12.00;98.20;;;;;;4991390;28;20472;-80
2022/09/26 01:01:37;;;;;;;1.47;1.00;;;12.10;98.20;;;;;;4976649;28;20482;-79
2022/09/26 01:04:06;;;;;;;1.50;1.10;;;12.10;98.20;;;;;;4990852;28;20543;-79
2022/09/26 01:06:33;;;;;;;1.47;1.10;;;12.20;98.20;;;;;;4977020;28;20481;-79
2022/09/26 01:09:07;;;;;;;1.50;1.10;;;12.20;98.20;;;;;;4989304;28;20496;-79
2022/09/26 01:11:35;;;;;;;1.47;1.10;;;12.20;98.20;;;;;;4991220;28;20479;-80
2022/09/26 01:14:02;;;;;;;1.50;1.00;;;12.20;98.20;;;;;;4998384;28;20489;-79
2022/09/26 01:16:30;;;;;;;1.50;1.20;;;12.30;98.20;;;;;;4963279;28;20502;-79
2022/09/26 01:18:57;;;;;;;1.43;1.10;;;12.30;98.20;;;;;;4987516;28;20511;-79
2022/09/26 01:21:53;;;;;;;1.50;1.03;;;12.30;98.20;;;;;;4985546;28;20567;-79
2022/09/26 01:24:41;;;;;;;1.50;1.00;;;12.20;98.20;;;;;;4989886;28;20527;-80
2022/09/26 01:27:38;;;;;;;1.50;1.00;;;12.30;98.20;;;;;;4980117;28;20539;-79
2022/09/26 01:30:10;;;;;;;1.47;1.03;;;12.30;98.20;;;;;;4989194;28;20488;-79
2022/09/26 01:33:24;;;;;;;1.50;1.10;;;12.30;98.20;;;;;;4966882;28;20486;-79
2022/09/26 01:36:25;;;;;;;1.50;1.13;;;12.30;98.20;;;;;;4979609;28;20468;-79
2022/09/26 01:39:08;;;;;;;1.50;1.10;;;12.30;98.20;;;;;;4985661;28;21057;-79
2022/09/26 01:41:44;;;;;;;1.47;0.90;;;12.30;98.20;;;;;;4981723;28;20481;-79
2022/09/26 01:44:22;;;;;;;1.47;1.00;;;12.30;98.20;;;;;;4985355;28;20516;-79
2022/09/26 01:46:54;;;;;;;1.50;1.10;;;12.40;98.20;;;;;;4973920;28;20485;-79
2022/09/26 01:49:26;;;;;;;1.50;1.10;;;12.40;98.20;;;;;;4985895;28;21013;-78
2022/09/26 01:51:59;;;;;;;1.50;1.10;;;12.40;98.20;;;;;;4980860;28;20528;-79
2022/09/26 01:54:30;;;;;;;1.50;1.10;;;12.30;98.20;;;;;;4992638;28;20508;-79
2022/09/26 01:56:58;;;;;;;1.50;1.10;;;12.30;98.20;;;;;;4987080;28;20488;-79
2022/09/26 01:59:29;;;;;;;1.50;1.10;;;12.30;98.20;;;;;;4998405;28;20516;-79
2022/09/26 02:02:03;;;;;;;1.50;1.10;;;12.30;98.20;;;;;;4972195;28;20482;-78
2022/09/26 02:04:38;;;;;;;1.50;1.10;;;12.30;98.20;;;;;;4983409;28;20627;-79
2022/09/26 02:07:11;;;;;;;1.50;1.10;;;12.30;98.20;;;;;;4980159;28;20485;-79
2022/09/26 02:09:42;;;;;;;1.47;1.03;;;12.40;98.20;;;;;;4987257;28;20583;-79
2022/09/26 02:12:13;;;;;;;1.50;1.10;;;12.30;98.20;;;;;;4970559;28;20568;-78
2022/09/26 02:14:43;;;;;;;1.43;1.00;;;12.40;98.20;;;;;;4984685;28;20551;-79
2022/09/26 02:17:16;;;;;;;1.50;1.07;;;12.40;98.20;;;;;;4981270;28;20570;-79
2022/09/26 02:19:51;;;;;;;1.50;1.03;;;12.40;98.20;;;;;;4990165;28;20515;-79
2022/09/26 02:22:19;;;;;;;1.47;1.00;;;12.40;98.20;;;;;;4969211;28;20572;-79
2022/09/26 02:24:46;;;;;;;1.43;1.00;;;12.30;98.20;;;;;;4988985;28;20488;-80
2022/09/26 02:27:13;;;;;;;1.47;1.10;;;12.30;98.20;;;;;;4986230;28;20490;-79
2022/09/26 02:29:40;;;;;;;1.47;1.00;;;12.30;98.20;;;;;;4989764;28;20507;-79
2022/09/26 02:32:14;;;;;;;1.50;1.00;;;12.30;98.20;;;;;;4981768;28;20525;-79
2022/09/26 02:34:43;;;;;;;1.50;1.10;;;12.30;98.20;;;;;;4991215;28;20532;-79
2022/09/26 02:37:12;;;;;;;1.47;1.00;;;12.30;98.20;;;;;;4977878;28;20949;-78
2022/09/26 02:39:41;;;;;;;1.50;1.00;;;12.30;98.20;;;;;;4989811;28;20480;-79
2022/09/26 02:42:16;;;;;;;1.50;1.00;;;12.30;98.20;;;;;;4977837;28;20481;-78
2022/09/26 02:45:02;;;;;;;1.50;1.00;;;12.30;98.20;;;;;;4981284;28;20492;-79
2022/09/26 02:47:50;;;;;;;1.50;1.00;;;12.20;98.20;;;;;;4962973;28;20519;-79
2022/09/26 02:50:28;;;;;;;1.50;1.03;;;12.20;98.20;;;;;;4989671;28;20854;-78
2022/09/26 02:53:10;;;;;;;1.50;1.10;;;12.20;98.20;;;;;;4964535;28;20490;-79
2022/09/26 02:55:46;;;;;;;1.50;1.07;;;12.30;98.20;;;;;;4989190;28;20901;-79
2022/09/26 02:58:21;;;;;;;1.50;1.10;;;12.30;98.20;;;;;;4976483;28;20775;-80
2022/09/26 03:00:58;;;;;;;1.43;1.00;;;12.30;98.20;;;;;;4985837;28;20567;-80
2022/09/26 03:03:33;;;;;;;1.50;1.00;;;12.30;98.20;;;;;;4975373;28;20496;-80
2022/09/26 03:06:02;;;;;;;1.50;1.00;;;12.30;98.20;;;;;;4980012;28;20559;-80
2022/09/26 03:08:33;;;;;;;1.50;1.00;;;12.30;98.20;;;;;;4966013;28;20472;-79
2022/09/26 03:11:04;;;;;;;1.43;1.00;;;12.30;98.20;;;;;;4980767;28;20903;-79
2022/09/26 03:13:34;;;;;;;1.47;1.00;;;12.30;98.20;;;;;;4987436;28;20476;-79
2022/09/26 03:16:02;;;;;;;1.50;1.10;;;12.30;98.20;;;;;;4983415;28;20479;-79
2022/09/26 03:18:37;;;;;;;1.50;1.00;;;12.30;98.20;;;;;;4995234;28;20465;-79
2022/09/26 03:21:04;;;;;;;1.50;1.10;;;12.30;98.20;;;;;;4977767;28;20547;-79
2022/09/26 03:23:32;;;;;;;1.47;1.00;;;12.40;98.20;;;;;;4988556;28;20504;-79
2022/09/26 03:26:01;;;;;;;1.50;1.10;;;12.40;98.20;;;;;;4986242;28;20464;-80
2022/09/26 03:28:28;;;;;;;1.50;1.10;;;12.40;98.20;;;;;;5008299;28;20885;-80
2022/09/26 03:30:55;;;;;;;1.50;1.00;;;12.40;98.20;;;;;;4982376;28;20512;-80
2022/09/26 03:33:22;;;;;;;1.47;1.00;;;12.30;98.20;;;;;;4973769;28;20475;-80
2022/09/26 03:35:51;;;;;;;1.50;1.10;;;12.30;98.20;;;;;;4983003;28;20524;-79
2022/09/26 03:38:18;;;;;;;1.50;1.00;;;12.30;98.20;;;;;;4987851;28;20489;-79
2022/09/26 03:40:45;;;;;;;1.50;1.00;;;12.30;98.20;;;;;;4993996;28;20484;-79
2022/09/26 03:43:12;;;;;;;1.50;1.10;;;12.30;98.20;;;;;;4966718;28;20469;-79
2022/09/26 03:45:39;;;;;;;1.50;1.10;;;12.30;98.20;;;;;;4993891;28;21013;-80
2022/09/26 03:48:06;;;;;;;1.50;1.00;;;12.40;98.20;;;;;;4983229;28;20484;-80
2022/09/26 03:50:33;;;;;;;1.50;1.00;;;12.40;98.20;;;;;;4993469;28;20993;-80
2022/09/26 03:53:02;;;;;;;1.50;1.20;;;12.30;98.20;;;;;;4965523;28;20559;-79
2022/09/26 03:55:29;;;;;;;1.50;1.00;;;12.30;98.20;;;;;;4993802;28;20967;-80
2022/09/26 03:57:56;;;;;;;1.50;1.00;;;12.30;98.20;;;;;;4974801;28;20859;-79
2022/09/26 04:00:23;;;;;;;1.50;1.00;;;12.20;98.20;;;;;;5004428;28;20481;-79
2022/09/26 04:02:50;;;;;;;1.43;1.10;;;12.20;98.20;;;;;;4988320;28;20705;-79
2022/09/26 04:05:17;;;;;;;1.50;1.10;;;12.10;98.20;;;;;;4988972;28;20480;-79
2022/09/26 04:07:45;;;;;;;1.47;1.00;;;12.10;98.20;;;;;;4989328;28;20527;-79
2022/09/26 04:10:14;;;;;;;1.50;1.10;;;12.00;98.20;;;;;;4994870;28;20628;-80
2022/09/26 04:12:41;;;;;;;1.50;1.10;;;12.00;98.20;;;;;;4980275;28;20483;-79
2022/09/26 04:15:09;;;;;;;1.50;1.10;;;11.90;98.20;;;;;;4988003;28;20997;-79
2022/09/26 04:17:36;;;;;;;1.47;1.00;;;11.90;98.20;;;;;;4969673;28;20508;-79
2022/09/26 04:20:03;;;;;;;1.47;1.10;;;11.90;98.20;;;;;;4994887;28;20481;-79
2022/09/26 04:22:30;;;;;;;1.50;1.10;;;11.90;98.20;;;;;;4980344;28;20703;-79
2022/09/26 04:24:57;;;;;;;1.50;1.00;;;11.90;98.20;;;;;;4990766;28;20480;-78
2022/09/26 04:27:28;;;;;;;1.50;1.10;;;11.90;98.20;;;;;;4980181;28;20625;-78
2022/09/26 04:29:56;;;;;;;1.50;1.03;;;11.90;98.20;;;;;;4997301;28;20560;-79
2022/09/26 04:32:23;;;;;;;1.50;1.07;;;11.80;98.20;;;;;;4978789;28;20491;-79
2022/09/26 04:34:50;;;;;;;1.50;1.10;;;11.80;98.20;;;;;;4994581;28;20473;-79
2022/09/26 04:37:19;;;;;;;1.50;1.00;;;11.80;98.20;;;;;;4980452;28;20500;-79
2022/09/26 04:39:47;;;;;;;1.50;1.00;;;11.80;98.20;;;;;;4993307;28;20580;-78
2022/09/26 04:42:14;;;;;;;1.50;1.10;;;11.80;98.20;;;;;;4974370;28;20490;-79
2022/09/26 04:44:42;;;;;;;1.50;1.10;;;11.70;98.20;;;;;;4984469;28;20641;-79
2022/09/26 04:47:10;;;;;;;1.50;1.00;;;11.80;98.20;;;;;;4981633;28;20999;-79
2022/09/26 04:49:38;;;;;;;1.50;1.10;;;11.80;98.20;;;;;;4985204;28;20487;-78
2022/09/26 04:52:05;;;;;;;1.50;1.10;;;11.80;98.20;;;;;;4977145;28;21092;-78
2022/09/26 04:54:37;;;;;;;1.50;1.00;;;11.80;98.20;;;;;;4993534;28;20559;-79
2022/09/26 04:57:04;;;;;;;1.50;1.00;;;11.80;98.20;;;;;;4985675;28;20495;-79
2022/09/26 04:59:31;;;;;;;1.50;1.00;;;11.80;98.20;;;;;;4990029;28;20571;-79
2022/09/26 05:02:05;;;;;;;1.50;1.00;;;11.80;98.20;;;;;;4980207;28;20640;-79
2022/09/26 05:04:32;;;;;;;1.50;1.00;;;11.80;98.20;;;;;;4991356;28;20488;-79
2022/09/26 05:06:59;;;;;;;1.50;1.00;;;11.80;98.20;;;;;;4978176;28;20486;-78
2022/09/26 05:09:26;;;;;;;1.50;1.10;;;11.80;98.20;;;;;;4997523;28;20487;-82
2022/09/26 05:11:54;;;;;;;1.50;1.00;;;11.80;98.20;;;;;;4979523;28;20494;-81
2022/09/26 05:14:21;;;;;;;1.50;1.10;;;11.80;98.20;;;;;;4991916;28;20846;-79
2022/09/26 05:16:48;;;;;;;1.50;1.10;;;11.80;98.20;;;;;;4980451;28;20991;-79
2022/09/26 05:19:16;;;;;;;1.50;1.10;;;11.80;98.20;;;;;;4989762;28;20922;-80
2022/09/26 05:21:43;;;;;;;1.50;1.10;;;11.80;98.20;;;;;;4973291;28;20481;-79
2022/09/26 05:26:55;;;;;;;1.50;1.10;;;11.80;98.20;;;;;;4985544;28;20917;-79
2022/09/26 05:29:22;;;;;;;1.50;1.10;;;11.80;98.20;;;;;;4992730;28;20465;-82
2022/09/26 05:31:52;;;;;;;1.50;1.10;;;11.80;98.20;;;;;;4986336;28;20500;-81
2022/09/26 05:34:23;;;;;;;1.50;1.00;;;11.80;98.20;;;;;;4996715;28;20938;-82
2022/09/26 05:36:50;;;;;;;1.50;1.00;;;11.80;98.20;;;;;;4982545;28;20845;-78
2022/09/26 05:42:05;;;;;;;1.50;1.00;;;11.70;98.20;;;;;;4973460;28;20593;-79
2022/09/26 05:44:32;;;;;;;1.50;1.10;;;11.70;98.20;;;;;;4992055;28;20477;-79
2022/09/26 05:46:59;;;;;;;1.50;1.00;;;11.60;98.20;;;;;;4979953;28;20489;-81
2022/09/26 05:49:28;;;;;;;1.50;1.10;;;11.70;98.20;;;;;;4989550;28;20919;-82
2022/09/26 05:51:56;;;;;;;1.50;1.10;;;11.60;98.20;;;;;;4980427;28;20574;-80
2022/09/26 05:54:23;;;;;;;1.50;1.10;;;11.60;98.20;;;;;;4993309;28;20539;-82
2022/09/26 05:56:53;;;;;;;1.50;1.10;;;11.70;98.20;;;;;;4987954;28;20516;-82
2022/09/26 05:59:20;;;;;;;1.50;1.10;;;11.70;98.20;;;;;;4996659;28;20472;-79
2022/09/26 06:01:48;;;;;;;1.50;1.10;;;11.70;98.20;;;;;;4978487;28;20494;-79
2022/09/26 06:04:15;;;;;;;1.50;1.10;;;11.70;98.20;;;;;;4988461;28;20469;-78
2022/09/26 06:06:44;;;;;;;1.50;1.10;;;11.80;98.20;;;;;;4980344;28;20512;-79
2022/09/26 06:09:11;;;;;;;1.50;1.10;;;11.80;98.20;;;;;;4991500;28;20464;-83
2022/09/26 06:11:38;;;;;;;1.50;1.00;;;11.80;98.20;;;;;;4981274;28;20500;-80
2022/09/26 06:14:07;;;;;;;1.50;1.00;;;11.90;98.20;;;;;;4990380;28;20868;-80
2022/09/26 06:16:34;;;;;;;1.50;1.10;;;11.90;98.20;;;;;;4972859;28;20470;-80
2022/09/26 06:19:02;;;;;;;1.50;1.07;;;12.00;98.20;;;;;;4982954;28;20555;-80
2022/09/26 06:21:29;;;;;;;1.50;1.00;;;12.00;98.20;;;;;;4983503;28;20484;-80
2022/09/26 06:23:58;;;;;;;1.50;1.10;;;12.10;98.20;;;;;;4989909;28;20474;-80
2022/09/26 06:26:28;;;;;;;1.50;1.10;;;12.20;98.20;;;;;;4985936;28;20516;-80
2022/09/26 06:28:56;;;;;;;1.50;1.00;;;12.20;98.20;;;;;;4986619;28;20473;-82
2022/09/26 06:31:24;;;;;;;1.50;1.00;;;12.30;98.20;;;;;;4976403;28;20818;-82
2022/09/26 06:33:52;;;;;;;1.50;1.00;;;12.40;98.20;;;;;;4981127;28;20775;-81
2022/09/26 06:36:20;;;;;;;1.50;1.00;;;12.40;98.20;;;;;;4980095;28;20500;-82
2022/09/26 06:38:48;;;;;;;1.50;1.00;;;12.50;98.20;;;;;;4991192;28;20826;-78
2022/09/26 06:41:17;;;;;;;1.50;1.07;;;12.50;98.20;;;;;;4980794;28;20900;-78
2022/09/26 06:43:44;;;;;;;1.50;1.00;;;12.60;98.20;;;;;;4981389;28;20932;-78
2022/09/26 06:46:12;;;;;;;1.50;0.90;;;12.70;98.20;;;;;;4978141;28;20836;-78
2022/09/26 06:48:39;;;;;;;1.50;1.00;;;12.70;98.20;;;;;;4982119;28;20519;-82
2022/09/26 06:51:07;;;;;;;1.50;1.00;;;12.70;98.20;;;;;;4978709;28;20501;-80
2022/09/26 06:53:34;;;;;;;1.50;1.00;;;12.70;98.20;;;;;;4984561;28;20738;-80
2022/09/26 06:56:02;;;;;;;1.50;1.00;;;12.70;98.20;;;;;;4983652;28;20805;-79
2022/09/26 06:58:31;;;;;;;1.50;1.00;;;12.80;98.20;;;;;;4984634;28;20532;-79
2022/09/26 07:00:59;;;;;;;1.50;1.00;;;12.80;98.20;;;;;;4977934;28;20495;-79
2022/09/26 07:03:27;;;;;;;1.50;1.10;;;12.90;98.20;;;;;;4992450;28;20482;-79
2022/09/26 07:05:55;;;;;;;2.00;1.80;;;12.90;98.20;;;;;;4977527;28;20562;-79
2022/09/26 07:08:23;;;;;;;1.50;1.00;;;13.00;98.20;;;;;;4979065;28;20560;-79
2022/09/26 07:10:50;;;;;;;1.50;1.00;;;13.00;98.20;;;;;;4981991;28;20511;-80
2022/09/26 07:13:18;;;;;;;1.50;1.03;;;13.00;98.20;;;;;;4988143;28;20500;-79
2022/09/26 07:15:47;;;;;;;1.50;1.00;;;13.10;98.20;;;;;;4990017;28;20461;-82
2022/09/26 07:18:15;;;;;;;1.50;1.00;;;13.10;98.20;;;;;;4976366;28;20504;-82
2022/09/26 07:20:45;;;;;;;1.50;1.00;;;13.10;98.20;;;;;;4990673;28;20520;-81
2022/09/26 07:23:13;;;;;;;1.50;1.00;;;13.10;98.20;;;;;;4960956;28;20496;-81
2022/09/26 07:25:40;;;;;;;1.50;1.00;;;13.10;98.20;;;;;;4989096;28;20481;-82
2022/09/26 07:28:09;;;;;;;1.50;1.00;;;13.10;98.20;;;;;;4976955;28;20489;-83
2022/09/26 07:30:37;;;;;;;1.50;1.00;;;13.20;98.20;;;;;;4992785;28;20485;-82
2022/09/26 07:33:06;;;;;;;1.50;1.00;;;13.20;98.20;;;;;;4973047;28;20485;-82
2022/09/26 07:35:34;;;;;;;1.50;1.00;;;13.20;98.20;;;;;;4991467;28;20465;-81
2022/09/26 07:38:03;;;;;;;1.50;1.00;;;13.20;98.20;;;;;;4966406;28;20548;-79
2022/09/26 07:40:31;;;;;;;1.47;1.00;;;13.20;98.20;;;;;;4987926;28;20572;-80
2022/09/26 07:43:01;;;;;;;1.47;1.00;;;13.30;98.20;;;;;;4974798;28;20500;-79
2022/09/26 07:51:00;;;;;;;1.50;1.10;;;13.30;98.20;;;;;;4981465;28;20581;-83
2022/09/26 07:53:28;;;;;;;1.50;1.00;;;13.30;98.20;;;;;;4984192;28;20465;-82
2022/09/26 07:56:09;;;;;;;1.47;0.93;;;13.20;98.20;;;;;;4982757;28;20881;-79
2022/09/26 07:58:42;;;;;;;1.50;1.00;;;13.30;98.20;;;;;;4991718;28;20806;-84
2022/09/26 08:01:10;;;;;;;1.50;1.00;;;13.20;98.20;;;;;;4977933;28;20517;-82
2022/09/26 08:03:40;;;;;;;1.50;1.00;;;13.10;98.20;;;;;;4979393;28;20476;-79
2022/09/26 08:06:08;;;;;;;1.50;1.00;;;13.10;98.20;;;;;;4973315;28;20489;-78
2022/09/26 08:08:36;;;;;;;1.50;1.00;;;13.10;98.20;;;;;;4989144;28;20469;-82
2022/09/26 08:11:04;;;;;;;1.50;1.00;;;13.10;98.20;;;;;;4982539;28;20513;-82
2022/09/26 08:13:32;;;;;;;1.47;1.00;;;13.10;98.20;;;;;;4986441;28;21017;-79
2022/09/26 08:16:04;;;;;;;1.50;1.00;;;13.10;98.20;;;;;;4980636;28;20464;-77
2022/09/26 08:18:33;;;;;;;1.50;1.00;;;13.10;98.20;;;;;;4986331;28;20464;-76
2022/09/26 08:21:04;;;;;;;1.50;1.10;;;13.00;98.20;;;;;;4976638;28;20514;-76
2022/09/26 08:23:32;;;;;;;1.50;1.00;;;13.00;98.20;;;;;;4975003;28;20461;-76
2022/09/26 08:25:59;;;;;;;1.50;1.00;;;13.00;98.20;;;;;;4982047;28;20487;-77
2022/09/26 08:28:27;;;;;;;1.50;1.10;;;13.00;98.20;;;;;;4994827;28;20492;-80
2022/09/26 08:30:57;;;;;;;1.50;1.00;;;13.00;98.20;;;;;;4984409;28;20496;-78
2022/09/26 08:33:24;;;;;;;1.50;1.00;;;13.00;98.20;;;;;;4991707;28;20515;-78
2022/09/26 08:35:51;;;;;;;1.50;1.00;;;13.00;98.20;;;;;;4983930;28;20461;-79
2022/09/26 08:38:21;;;;;;;1.50;1.00;;;13.00;98.20;;;;;;4982601;28;20479;-78
2022/09/26 08:40:55;;;;;;;1.50;1.00;;;13.00;98.20;;;;;;4998245;28;20951;-77
2022/09/26 08:43:40;;;;;;;1.50;1.00;;;12.90;98.20;;;;;;4983992;28;20492;-77
2022/09/26 08:49:24;;;;;;;1.50;1.00;;;12.90;98.20;;;;;;4983422;28;20547;-82
2022/09/26 08:51:54;;;;;;;1.50;0.90;;;12.90;98.20;;;;;;4983069;28;20485;-81
2022/09/26 08:54:32;;;;;;;1.50;1.00;;;12.90;98.20;;;;;;4991497;28;20475;-79
2022/09/26 08:57:06;;;;;;;1.50;1.00;;;12.80;98.20;;;;;;4988335;28;20551;-81
2022/09/26 08:59:39;;;;;;;1.47;1.00;;;12.80;98.20;;;;;;4996434;28;20492;-81
2022/09/26 09:02:14;;;;;;;1.47;1.00;;;12.70;98.20;;;;;;4984660;28;20506;-79
2022/09/26 09:04:45;;;;;;;1.50;1.10;;;12.70;98.20;;;;;;5001215;28;20548;-79
2022/09/26 09:07:23;;;;;;;1.97;1.70;;;12.70;98.20;;;;;;4977248;28;20495;-80
2022/09/26 09:09:55;;;;;;;1.50;1.00;;;12.70;98.20;;;;;;4990527;28;20971;-77
2022/09/26 09:12:31;;;;;;;1.50;1.00;;;12.70;98.20;;;;;;4973645;28;20485;-76
2022/09/26 09:15:23;;;;;;;1.50;1.00;;;12.70;98.20;;;;;;4989498;28;20479;-81
2022/09/26 09:18:02;;;;;;;1.50;1.00;;;12.80;98.20;;;;;;4975867;28;20597;-79
2022/09/26 09:20:39;;;;;;;1.50;1.00;;;12.80;98.20;;;;;;4994205;28;20544;-79
2022/09/26 09:23:33;;;;;;;1.47;0.90;;;12.90;98.20;;;;;;4973467;28;20517;-76
2022/09/26 09:26:10;;;;;;;1.47;1.00;;;12.90;98.20;;;;;;4984243;28;20481;-76
2022/09/26 09:28:57;;;;;;;1.50;1.00;;;12.90;98.20;;;;;;4984668;28;20453;-76
2022/09/26 09:31:29;;;;;;;1.50;1.00;;;12.80;98.20;;;;;;4977406;28;20567;-77
2022/09/26 09:33:59;;;;;;;1.50;1.00;;;12.80;98.20;;;;;;4989859;28;21091;-76
2022/09/26 09:36:32;;;;;;;1.50;1.00;;;12.70;98.20;;;;;;4976082;28;20539;-76
2022/09/26 09:39:05;;;;;;;1.47;0.90;;;12.70;98.20;;;;;;4988643;28;20523;-76
2022/09/26 09:41:38;;;;;;;1.50;1.00;;;12.60;98.20;;;;;;4978463;28;20469;-76
2022/09/26 09:44:27;;;;;;;1.50;1.00;;;12.60;98.20;;;;;;4986246;28;20469;-76
2022/09/26 09:46:55;;;;;;;1.50;1.00;;;12.50;98.20;;;;;;4973047;28;20497;-75
2022/09/26 09:49:23;;;;;;;1.50;1.00;;;12.60;98.20;;;;;;4980726;28;20465;-77
2022/09/26 09:52:02;;;;;;;1.50;0.97;;;12.60;98.20;;;;;;4976806;28;21044;-77
2022/09/26 09:54:41;;;;;;;1.50;1.00;;;12.70;98.20;;;;;;4982779;28;20911;-77
2022/09/26 09:57:56;;;;;;;1.50;0.90;;;12.80;98.20;;;;;;4982063;28;20480;-77
2022/09/26 10:00:26;;;;;;;1.50;1.00;;;12.90;98.20;;;;;;4928085;29;21096;-77
2022/09/26 10:03:00;;;;;;;1.50;1.00;;;13.00;98.20;;;;;;4956058;28;20485;-77
2022/09/26 10:05:38;;;;;;;1.50;1.00;;;13.10;98.20;;;;;;4988178;28;20501;-77
2022/09/26 10:08:12;;;;;;;1.50;1.00;;;13.10;98.20;;;;;;4977075;28;20488;-77
2022/09/26 10:10:45;;;;;;;1.50;1.00;;;13.10;98.20;;;;;;4988923;28;20480;-77
2022/09/26 10:13:12;;;;;;;1.50;1.00;;;13.10;98.20;;;;;;4977687;28;20491;-77
2022/09/26 10:15:49;;;;;;;1.50;1.00;;;13.10;98.20;;;;;;4986832;28;20618;-77
2022/09/26 10:18:20;;;;;;;1.50;1.00;;;13.10;98.20;;;;;;4956798;28;20575;-77
2022/09/26 10:20:52;;;;;;;1.50;1.00;;;13.10;98.20;;;;;;4989601;28;20598;-77
2022/09/26 10:23:25;;;;;;;1.50;1.00;;;13.10;98.20;;;;;;4965285;28;20484;-78
2022/09/26 10:26:02;;;;;;;1.50;1.00;;;13.10;98.20;;;;;;4987938;28;20591;-79
2022/09/26 10:28:34;;;;;;;1.50;1.00;;;13.10;98.20;;;;;;4980574;28;20460;-79
2022/09/26 10:31:09;;;;;;;1.50;1.00;;;13.20;98.20;;;;;;4980090;28;20480;-79
2022/09/26 10:33:38;;;;;;;1.50;1.10;;;13.30;98.20;;;;;;4988607;28;20460;-79
2022/09/26 10:36:19;;;;;;;1.50;1.00;;;13.30;98.20;;;;;;4979115;28;20469;-79
2022/09/26 10:41:41;;;;;;;1.50;1.00;;;13.40;98.20;;;;;;4979887;28;20496;-78
2022/09/26 10:44:23;;;;;;;1.70;1.60;;;13.40;98.20;;;;;;4998177;28;20883;-79
2022/09/26 10:46:55;;;;;;;1.50;1.00;;;13.50;98.20;;;;;;4971364;28;20867;-79
2022/09/26 10:49:28;;;;;;;1.50;0.97;;;13.50;98.20;;;;;;4986721;28;20528;-78
2022/09/26 10:52:03;;;;;;;1.50;1.00;;;13.60;98.20;;;;;;4969936;28;20482;-77
2022/09/26 10:54:41;;;;;;;1.50;1.00;;;13.60;98.20;;;;;;4986515;28;20464;-78
2022/09/26 10:57:21;;;;;;;1.50;1.00;;;13.70;98.20;;;;;;4974646;28;20479;-78
2022/09/26 10:59:50;;;;;;;1.50;1.00;;;13.80;98.20;;;;;;4987324;28;20763;-77
2022/09/26 11:02:25;;;;;;;1.50;1.00;;;13.80;98.20;;;;;;4980360;28;20491;-78
2022/09/26 11:07:46;;;;;;;1.50;1.00;;;14.00;98.20;;;;;;4977924;28;20488;-78
2022/09/26 11:15:18;;;;;;;1.50;0.93;;;14.40;98.20;;;;;;4967969;28;20531;-76
2022/09/26 11:17:49;;;;;;;1.90;1.53;;;14.50;98.20;;;;;;4944478;28;21081;-78
2022/09/26 11:20:26;;;;;;;1.50;0.90;;;14.70;98.20;;;;;;4967814;28;20914;-78
2022/09/26 11:23:02;;;;;;;1.50;0.90;;;14.60;98.20;;;;;;4958802;28;20513;-79
2022/09/26 11:25:48;;;;;;;1.50;0.90;;;14.70;98.20;;;;;;4968129;28;20841;-77
2022/09/26 11:28:18;;;;;;;1.50;1.00;;;14.80;98.20;;;;;;4948236;28;20472;-77
2022/09/26 11:30:51;;;;;;;1.50;1.00;;;14.90;98.20;;;;;;4969878;28;20516;-77
2022/09/26 11:33:20;;;;;;;1.50;0.97;;;14.90;98.20;;;;;;4958449;28;20492;-78
2022/09/26 11:36:01;;;;;;;1.50;1.00;;;14.90;98.20;;;;;;4968407;28;20472;-78
2022/09/26 11:38:41;;;;;;;1.60;1.37;;;14.90;98.20;;;;;;4966874;28;20520;-78
2022/09/26 11:41:40;;;;;;;1.50;1.00;;;14.80;98.20;;;;;;4957712;28;20545;-77
2022/09/26 11:44:40;;;;;;;1.50;1.00;;;14.80;98.20;;;;;;4967465;28;20561;-78
2022/09/26 11:47:35;;;;;;;1.50;1.00;;;14.80;98.20;;;;;;4952346;28;20537;-78
2022/09/26 11:50:23;;;;;;;1.50;1.00;;;14.80;98.20;;;;;;4966605;28;20490;-78
2022/09/26 11:53:04;;;;;;;1.50;0.93;;;14.80;98.20;;;;;;4957574;28;20482;-79
2022/09/26 11:55:40;;;;;;;1.50;0.90;;;14.90;98.20;;;;;;4968869;28;20469;-77
2022/09/26 11:58:18;;;;;;;1.50;1.00;;;15.00;98.20;;;;;;4961224;28;20477;-78
2022/09/26 12:00:55;;;;;;;1.50;0.90;;;15.00;98.20;;;;;;4968563;28;20486;-77
2022/09/26 12:03:49;;;;;;;1.50;0.97;;;14.90;98.20;;;;;;4943675;28;20956;-77
2022/09/26 12:06:32;;;;;;;1.50;1.00;;;14.90;98.20;;;;;;4964081;28;20486;-77
2022/09/26 12:09:23;;;;;;;1.50;0.90;;;15.00;98.20;;;;;;4971296;28;20468;-79
2022/09/26 12:12:00;;;;;;;1.50;1.00;;;15.10;98.20;;;;;;4951847;28;20577;-77
2022/09/26 12:14:42;;;;;;;1.50;1.00;;;15.10;98.20;;;;;;4974364;28;20461;-78
2022/09/26 12:17:20;;;;;;;1.50;1.00;;;15.10;98.20;;;;;;4966451;28;20500;-78
2022/09/26 12:19:57;;;;;;;1.50;1.00;;;15.10;98.20;;;;;;4976220;28;20564;-78
2022/09/26 12:22:34;;;;;;;1.50;1.00;;;15.10;98.20;;;;;;4960478;28;20505;-78
2022/09/26 12:25:21;;;;;;;1.50;0.90;;;15.10;98.20;;;;;;4972881;28;20520;-79
2022/09/26 12:28:04;;;;;;;1.50;0.93;;;15.10;98.20;;;;;;4962385;28;20505;-80
2022/09/26 12:30:37;;;;;;;1.50;1.00;;;15.00;98.20;;;;;;4977064;28;20496;-80
2022/09/26 12:33:31;;;;;;;1.50;0.90;;;15.00;98.20;;;;;;4966084;28;20485;-80
2022/09/26 12:36:03;;;;;;;1.50;1.00;;;15.00;98.20;;;;;;4961400;28;20864;-79
2022/09/26 12:38:47;;;;;;;1.50;1.00;;;14.90;98.20;;;;;;4969406;28;20489;-79
2022/09/26 12:41:32;;;;;;;1.50;0.90;;;14.90;98.20;;;;;;4964048;28;20533;-79
2022/09/26 12:44:20;;;;;;;1.50;0.90;;;14.80;98.20;;;;;;4971221;28;20501;-81
2022/09/26 12:47:03;;;;;;;1.50;1.07;;;14.80;98.20;;;;;;4959369;28;20489;-74
2022/09/26 12:50:03;;;;;;;1.50;1.00;;;14.70;98.20;;;;;;4976891;28;20476;-78
2022/09/26 12:53:11;;;;;;;1.50;1.00;;;14.50;98.20;;;;;;4960062;28;20931;-76
2022/09/26 12:55:48;;;;;;;1.50;0.90;;;14.40;98.20;;;;;;4973943;28;20540;-76
2022/09/26 12:58:31;;;;;;;1.50;1.00;;;14.30;98.20;;;;;;4944460;28;21001;-75
2022/09/26 13:01:12;;;;;;;1.50;1.00;;;14.30;98.20;;;;;;4961935;28;20539;-75
2022/09/26 13:03:59;;;;;;;1.43;0.90;;;14.20;98.20;;;;;;4969550;28;20977;-76
2022/09/26 13:06:46;;;;;;;1.50;0.97;;;14.20;98.20;;;;;;4958342;28;20477;-76
2022/09/26 13:09:26;;;;;;;1.60;1.13;;;14.30;98.20;;;;;;4968635;28;20470;-76
2022/09/26 13:12:07;;;;;;;1.50;1.00;;;14.30;98.20;;;;;;4960161;28;20505;-77
2022/09/26 13:14:59;;;;;;;1.50;0.90;;;14.30;98.20;;;;;;4969337;28;20473;-78
2022/09/26 13:17:32;;;;;;;1.50;1.00;;;14.20;98.20;;;;;;4958413;28;20564;-77
2022/09/26 13:20:04;;;;;;;1.50;1.00;;;14.20;98.20;;;;;;4973418;28;20477;-76
2022/09/26 13:22:38;;;;;;;1.50;1.00;;;14.10;98.20;;;;;;4958736;28;20563;-77
2022/09/26 13:25:16;;;;;;;1.50;1.00;;;14.10;98.20;;;;;;4971634;28;20489;-77
2022/09/26 13:27:51;;;;;;;1.50;1.00;;;14.10;98.20;;;;;;4960220;28;21010;-76
2022/09/26 13:30:22;;;;;;;1.50;1.00;;;14.00;98.20;;;;;;4969697;28;20982;-76
2022/09/26 13:33:01;;;;;;;1.50;1.00;;;14.00;98.20;;;;;;4958026;28;20544;-77
2022/09/26 13:35:32;;;;;;;1.50;1.00;;;14.00;98.20;;;;;;4966902;28;20565;-77
2022/09/26 13:38:18;;;;;;;1.50;1.00;;;14.00;98.20;;;;;;4958875;28;20482;-77
2022/09/26 13:40:53;;;;;;;1.50;0.90;;;14.00;98.20;;;;;;4968984;28;20561;-77
2022/09/26 13:43:43;;;;;;;1.50;1.00;;;14.00;98.20;;;;;;4957201;28;20477;-77